Chichester, NY (12416)

7:45 PM EST on January 30, 2015 (GMT -0500)
Willow, NY | Change Station
CLOSE
Current Station
Personal Weather Station
Location: Willow, NY
Elevation: 1033 ft
Nearby Weather Stations
Active Advisory: Wind Chill Advisory Active Notice: Public Information Statement

Elev 1033 ft 42.07 °N, 74.22 °W | Updated 41 seconds ago

Overcast
Overcast
15.0 °F
Feels Like -1 °F
N
17.0
Wind Variable Wind from ESE
Gusts 32.0 mph

Today
High -- | Low -- °F
--% Chance of Precip.
Yesterday
High -- | Low -- °F
Precip. -- in
7:12 AM 5:08 PM
Waxing Gibbous, 86% visible
Pressure 29.96 in
Visibility 10.0 miles
Clouds Clear
Windchill -1 °F
Dew Point 6 °F
Humidity 67%
Rainfall 0.00 in
Snow Depth Not available.
UV 0 out of 12
Pollen .10 out of 12
Air Quality Not available.
Flu Activity Not available.
METAR KPOU 302353Z 33012G22KT 10SM CLR M03/M13 A2996 RMK AO2 PK WND 30028/2256 SLP143 T10331133 10028 21033 53035

More Conditions Fewer Conditions

Pressure 29.96 in
Visibility 10.0 miles
Clouds Clear
Windchill -1 °F
Dew Point 6 °F
Humidity 67%
Rainfall 0.00 in
Snow Depth Not available.
UV 0 out of 12
Pollen .10 out of 12
Air Quality Not available.
Flu Activity Not available.
METAR KPOU 302353Z 33012G22KT 10SM CLR M03/M13 A2996 RMK AO2 PK WND 30028/2256 SLP143 T10331133 10028 21033 53035

More Conditions Fewer Conditions

10-Day Weather Forecast

Almanac

Astronomy

Jan. 30, 2015 Rise Set
Actual Time
Civil Twilight
Nautical Twilight
Astronomical Twilight
Moon
Length of Visible Light
Length of Day
Tomorrow will be .
, % of the Moon is Illuminated

Today's Extremes

State Highs State Lows

Community

WunderPhotos

Upload Photos

1,791,942 photos uploaded!

WunderBlogs® & News

Nearby

Air Quality

  Air Quality AQ Index Pollutant
Not available.

Snow Depth

Station Depth Elevation

Earthquake Activity

City Distance Mag. Time & Date
Minimum magnitude displayed is 2.5.

Coastal Water Temperatures

Place Temperature

Nearby Weather Stations